sensor_id;sensor_type;location;lat;lon;timestamp;P1;P2;P0
61592;PMS5003;47485;51.378;-1.342;2022-09-02T00:01:34;26;22;
61592;PMS5003;47485;51.378;-1.342;2022-09-02T00:04:04;20;20;
61592;PMS5003;47485;51.378;-1.342;2022-09-02T00:06:34;26;23;
61592;PMS5003;47485;51.378;-1.342;2022-09-02T00:09:03;24;23;
61592;PMS5003;47485;51.378;-1.342;2022-09-02T00:11:31;20;20;
61592;PMS5003;47485;51.378;-1.342;2022-09-02T00:13:59;22;22;
61592;PMS5003;47485;51.378;-1.342;2022-09-02T00:16:29;20;20;
61592;PMS5003;47485;51.378;-1.342;2022-09-02T00:18:56;21;21;
61592;PMS5003;47485;51.378;-1.342;2022-09-02T00:21:23;17;17;
61592;PMS5003;47485;51.378;-1.342;2022-09-02T00:23:49;20;17;
61592;PMS5003;47485;51.378;-1.342;2022-09-02T00:26:17;17;16;
61592;PMS5003;47485;51.378;-1.342;2022-09-02T00:28:44;21;20;
61592;PMS5003;47485;51.378;-1.342;2022-09-02T00:31:11;19;19;
61592;PMS5003;47485;51.378;-1.342;2022-09-02T00:33:39;24;24;
61592;PMS5003;47485;51.378;-1.342;2022-09-02T00:36:06;20;20;
61592;PMS5003;47485;51.378;-1.342;2022-09-02T00:38:35;17;17;
61592;PMS5003;47485;51.378;-1.342;2022-09-02T00:41:04;21;21;
61592;PMS5003;47485;51.378;-1.342;2022-09-02T00:43:39;21;20;
61592;PMS5003;47485;51.378;-1.342;2022-09-02T00:46:08;21;20;
61592;PMS5003;47485;51.378;-1.342;2022-09-02T00:48:37;21;21;
61592;PMS5003;47485;51.378;-1.342;2022-09-02T00:51:07;23;23;
61592;PMS5003;47485;51.378;-1.342;2022-09-02T00:53:35;20;18;
61592;PMS5003;47485;51.378;-1.342;2022-09-02T00:56:06;20;19;
61592;PMS5003;47485;51.378;-1.342;2022-09-02T00:58:38;19;19;
61592;PMS5003;47485;51.378;-1.342;2022-09-02T01:01:05;21;20;
61592;PMS5003;47485;51.378;-1.342;2022-09-02T01:03:35;24;23;
61592;PMS5003;47485;51.378;-1.342;2022-09-02T01:06:03;18;16;
61592;PMS5003;47485;51.378;-1.342;2022-09-02T01:08:31;21;21;
61592;PMS5003;47485;51.378;-1.342;2022-09-02T01:10:59;20;20;
61592;PMS5003;47485;51.378;-1.342;2022-09-02T01:13:28;20;18;
61592;PMS5003;47485;51.378;-1.342;2022-09-02T01:16:01;19;18;
61592;PMS5003;47485;51.378;-1.342;2022-09-02T01:18:34;21;20;
61592;PMS5003;47485;51.378;-1.342;2022-09-02T01:21:02;24;23;
61592;PMS5003;47485;51.378;-1.342;2022-09-02T01:23:28;19;18;
61592;PMS5003;47485;51.378;-1.342;2022-09-02T01:25:57;22;21;
61592;PMS5003;47485;51.378;-1.342;2022-09-02T01:28:24;18;18;
61592;PMS5003;47485;51.378;-1.342;2022-09-02T01:30:53;22;20;
61592;PMS5003;47485;51.378;-1.342;2022-09-02T01:33:21;20;20;
61592;PMS5003;47485;51.378;-1.342;2022-09-02T01:35:49;22;19;
61592;PMS5003;47485;51.378;-1.342;2022-09-02T01:38:16;19;17;
61592;PMS5003;47485;51.378;-1.342;2022-09-02T01:40:44;18;17;
61592;PMS5003;47485;51.378;-1.342;2022-09-02T01:43:13;22;21;
61592;PMS5003;47485;51.378;-1.342;2022-09-02T01:45:42;16;16;
61592;PMS5003;47485;51.378;-1.342;2022-09-02T01:48:13;18;18;
61592;PMS5003;47485;51.378;-1.342;2022-09-02T01:50:41;15;15;
61592;PMS5003;47485;51.378;-1.342;2022-09-02T01:53:12;19;18;
61592;PMS5003;47485;51.378;-1.342;2022-09-02T01:55:40;17;17;
61592;PMS5003;47485;51.378;-1.342;2022-09-02T01:58:07;22;20;
61592;PMS5003;47485;51.378;-1.342;2022-09-02T02:00:34;17;17;
61592;PMS5003;47485;51.378;-1.342;2022-09-02T02:03:02;16;15;
61592;PMS5003;47485;51.378;-1.342;2022-09-02T02:05:29;18;17;
61592;PMS5003;47485;51.378;-1.342;2022-09-02T02:07:57;20;17;
61592;PMS5003;47485;51.378;-1.342;2022-09-02T02:10:24;24;24;
61592;PMS5003;47485;51.378;-1.342;2022-09-02T02:12:52;18;17;
61592;PMS5003;47485;51.378;-1.342;2022-09-02T02:15:19;17;17;
61592;PMS5003;47485;51.378;-1.342;2022-09-02T02:17:46;20;18;
61592;PMS5003;47485;51.378;-1.342;2022-09-02T02:20:14;14;14;
61592;PMS5003;47485;51.378;-1.342;2022-09-02T02:22:42;17;15;
61592;PMS5003;47485;51.378;-1.342;2022-09-02T02:25:10;17;16;
61592;PMS5003;47485;51.378;-1.342;2022-09-02T02:27:38;20;18;
61592;PMS5003;47485;51.378;-1.342;2022-09-02T02:30:06;18;18;
61592;PMS5003;47485;51.378;-1.342;2022-09-02T02:32:35;14;14;
61592;PMS5003;47485;51.378;-1.342;2022-09-02T02:35:03;20;19;
61592;PMS5003;47485;51.378;-1.342;2022-09-02T02:37:31;16;16;
61592;PMS5003;47485;51.378;-1.342;2022-09-02T02:39:58;16;14;
61592;PMS5003;47485;51.378;-1.342;2022-09-02T02:42:24;17;15;
61592;PMS5003;47485;51.378;-1.342;2022-09-02T02:44:51;17;16;
61592;PMS5003;47485;51.378;-1.342;2022-09-02T02:47:18;20;18;
61592;PMS5003;47485;51.378;-1.342;2022-09-02T02:49:44;12;12;
61592;PMS5003;47485;51.378;-1.342;2022-09-02T02:52:11;16;16;
61592;PMS5003;47485;51.378;-1.342;2022-09-02T02:54:39;13;13;
61592;PMS5003;47485;51.378;-1.342;2022-09-02T02:57:07;19;16;
61592;PMS5003;47485;51.378;-1.342;2022-09-02T02:59:35;16;14;
61592;PMS5003;47485;51.378;-1.342;2022-09-02T03:02:03;14;14;
61592;PMS5003;47485;51.378;-1.342;2022-09-02T03:04:31;14;14;
61592;PMS5003;47485;51.378;-1.342;2022-09-02T03:06:57;14;13;
61592;PMS5003;47485;51.378;-1.342;2022-09-02T03:09:25;11;11;
61592;PMS5003;47485;51.378;-1.342;2022-09-02T03:11:52;14;14;
61592;PMS5003;47485;51.378;-1.342;2022-09-02T03:14:18;13;12;
61592;PMS5003;47485;51.378;-1.342;2022-09-02T03:16:45;13;12;
61592;PMS5003;47485;51.378;-1.342;2022-09-02T03:19:12;14;14;
61592;PMS5003;47485;51.378;-1.342;2022-09-02T03:21:39;15;13;
61592;PMS5003;47485;51.378;-1.342;2022-09-02T03:24:06;15;14;
61592;PMS5003;47485;51.378;-1.342;2022-09-02T03:26:34;15;14;
61592;PMS5003;47485;51.378;-1.342;2022-09-02T03:29:01;18;18;
61592;PMS5003;47485;51.378;-1.342;2022-09-02T03:31:28;13;11;
61592;PMS5003;47485;51.378;-1.342;2022-09-02T03:33:55;18;17;
61592;PMS5003;47485;51.378;-1.342;2022-09-02T03:36:23;14;14;
61592;PMS5003;47485;51.378;-1.342;2022-09-02T03:38:51;14;14;
61592;PMS5003;47485;51.378;-1.342;2022-09-02T03:41:18;12;11;
61592;PMS5003;47485;51.378;-1.342;2022-09-02T03:43:44;17;14;
61592;PMS5003;47485;51.378;-1.342;2022-09-02T03:46:11;15;15;
61592;PMS5003;47485;51.378;-1.342;2022-09-02T03:48:38;15;15;
61592;PMS5003;47485;51.378;-1.342;2022-09-02T03:51:05;14;13;
61592;PMS5003;47485;51.378;-1.342;2022-09-02T03:53:33;13;13;
61592;PMS5003;47485;51.378;-1.342;2022-09-02T03:56:03;14;13;
61592;PMS5003;47485;51.378;-1.342;2022-09-02T03:58:31;11;10;
61592;PMS5003;47485;51.378;-1.342;2022-09-02T04:00:58;13;13;
61592;PMS5003;47485;51.378;-1.342;2022-09-02T04:03:25;11;11;
61592;PMS5003;47485;51.378;-1.342;2022-09-02T04:05:52;12;10;
61592;PMS5003;47485;51.378;-1.342;2022-09-02T04:08:19;13;13;
61592;PMS5003;47485;51.378;-1.342;2022-09-02T04:10:46;15;13;
61592;PMS5003;47485;51.378;-1.342;2022-09-02T04:13:13;15;12;
61592;PMS5003;47485;51.378;-1.342;2022-09-02T04:15:41;12;12;
61592;PMS5003;47485;51.378;-1.342;2022-09-02T04:18:09;14;11;
61592;PMS5003;47485;51.378;-1.342;2022-09-02T04:20:36;14;13;
61592;PMS5003;47485;51.378;-1.342;2022-09-02T04:23:04;13;12;
61592;PMS5003;47485;51.378;-1.342;2022-09-02T04:25:31;13;11;
61592;PMS5003;47485;51.378;-1.342;2022-09-02T04:27:59;13;12;
61592;PMS5003;47485;51.378;-1.342;2022-09-02T04:30:26;15;13;
61592;PMS5003;47485;51.378;-1.342;2022-09-02T04:32:53;15;13;
61592;PMS5003;47485;51.378;-1.342;2022-09-02T04:35:20;16;15;
61592;PMS5003;47485;51.378;-1.342;2022-09-02T04:37:47;13;13;
61592;PMS5003;47485;51.378;-1.342;2022-09-02T04:40:14;16;13;
61592;PMS5003;47485;51.378;-1.342;2022-09-02T04:42:41;14;14;
61592;PMS5003;47485;51.378;-1.342;2022-09-02T04:45:08;14;14;
61592;PMS5003;47485;51.378;-1.342;2022-09-02T04:47:36;17;13;
61592;PMS5003;47485;51.378;-1.342;2022-09-02T04:50:03;14;12;
61592;PMS5003;47485;51.378;-1.342;2022-09-02T04:52:30;15;13;
61592;PMS5003;47485;51.378;-1.342;2022-09-02T04:54:57;14;13;
61592;PMS5003;47485;51.378;-1.342;2022-09-02T04:57:24;12;12;
61592;PMS5003;47485;51.378;-1.342;2022-09-02T04:59:50;12;12;
61592;PMS5003;47485;51.378;-1.342;2022-09-02T05:02:17;16;15;
61592;PMS5003;47485;51.378;-1.342;2022-09-02T05:04:44;12;12;
61592;PMS5003;47485;51.378;-1.342;2022-09-02T05:07:11;11;9;
61592;PMS5003;47485;51.378;-1.342;2022-09-02T05:09:37;15;14;
61592;PMS5003;47485;51.378;-1.342;2022-09-02T05:12:04;13;12;
61592;PMS5003;47485;51.378;-1.342;2022-09-02T05:14:31;14;13;
61592;PMS5003;47485;51.378;-1.342;2022-09-02T05:16:59;15;13;
61592;PMS5003;47485;51.378;-1.342;2022-09-02T05:19:26;16;14;
61592;PMS5003;47485;51.378;-1.342;2022-09-02T05:21:52;14;12;
61592;PMS5003;47485;51.378;-1.342;2022-09-02T05:24:19;12;11;
61592;PMS5003;47485;51.378;-1.342;2022-09-02T05:26:46;12;10;
61592;PMS5003;47485;51.378;-1.342;2022-09-02T05:29:12;11;10;
61592;PMS5003;47485;51.378;-1.342;2022-09-02T05:31:39;15;13;
61592;PMS5003;47485;51.378;-1.342;2022-09-02T05:34:06;13;13;
61592;PMS5003;47485;51.378;-1.342;2022-09-02T05:36:34;13;11;
61592;PMS5003;47485;51.378;-1.342;2022-09-02T05:39:02;12;11;
61592;PMS5003;47485;51.378;-1.342;2022-09-02T05:41:29;14;12;
61592;PMS5003;47485;51.378;-1.342;2022-09-02T05:43:58;14;13;
61592;PMS5003;47485;51.378;-1.342;2022-09-02T05:46:27;14;13;
61592;PMS5003;47485;51.378;-1.342;2022-09-02T05:48:55;14;13;
61592;PMS5003;47485;51.378;-1.342;2022-09-02T05:51:22;14;14;
61592;PMS5003;47485;51.378;-1.342;2022-09-02T05:53:50;16;14;
61592;PMS5003;47485;51.378;-1.342;2022-09-02T05:56:17;17;16;
61592;PMS5003;47485;51.378;-1.342;2022-09-02T05:58:44;15;14;
61592;PMS5003;47485;51.378;-1.342;2022-09-02T06:01:12;16;15;
61592;PMS5003;47485;51.378;-1.342;2022-09-02T06:03:40;16;16;
61592;PMS5003;47485;51.378;-1.342;2022-09-02T06:06:07;20;16;
61592;PMS5003;47485;51.378;-1.342;2022-09-02T06:08:35;16;16;
61592;PMS5003;47485;51.378;-1.342;2022-09-02T06:11:03;13;13;
61592;PMS5003;47485;51.378;-1.342;2022-09-02T06:13:35;15;13;
61592;PMS5003;47485;51.378;-1.342;2022-09-02T06:16:05;15;14;
61592;PMS5003;47485;51.378;-1.342;2022-09-02T06:18:32;12;12;
61592;PMS5003;47485;51.378;-1.342;2022-09-02T06:20:59;15;15;
61592;PMS5003;47485;51.378;-1.342;2022-09-02T06:23:27;16;14;
61592;PMS5003;47485;51.378;-1.342;2022-09-02T06:25:54;18;16;
61592;PMS5003;47485;51.378;-1.342;2022-09-02T06:28:21;19;17;
61592;PMS5003;47485;51.378;-1.342;2022-09-02T06:30:47;14;14;
61592;PMS5003;47485;51.378;-1.342;2022-09-02T06:33:14;15;15;
61592;PMS5003;47485;51.378;-1.342;2022-09-02T06:35:42;15;14;
61592;PMS5003;47485;51.378;-1.342;2022-09-02T06:38:10;13;13;
61592;PMS5003;47485;51.378;-1.342;2022-09-02T06:40:44;16;15;
61592;PMS5003;47485;51.378;-1.342;2022-09-02T06:43:12;18;16;
61592;PMS5003;47485;51.378;-1.342;2022-09-02T06:45:38;13;12;
61592;PMS5003;47485;51.378;-1.342;2022-09-02T06:48:06;13;13;
61592;PMS5003;47485;51.378;-1.342;2022-09-02T06:50:33;13;12;
61592;PMS5003;47485;51.378;-1.342;2022-09-02T06:53:04;15;15;
61592;PMS5003;47485;51.378;-1.342;2022-09-02T06:55:31;17;15;
61592;PMS5003;47485;51.378;-1.342;2022-09-02T06:58:00;18;17;
61592;PMS5003;47485;51.378;-1.342;2022-09-02T07:00:27;17;16;
61592;PMS5003;47485;51.378;-1.342;2022-09-02T07:02:53;17;16;
61592;PMS5003;47485;51.378;-1.342;2022-09-02T07:05:20;15;13;
61592;PMS5003;47485;51.378;-1.342;2022-09-02T07:07:47;18;16;
61592;PMS5003;47485;51.378;-1.342;2022-09-02T07:10:13;15;15;
61592;PMS5003;47485;51.378;-1.342;2022-09-02T07:12:41;16;14;
61592;PMS5003;47485;51.378;-1.342;2022-09-02T07:15:08;14;13;
61592;PMS5003;47485;51.378;-1.342;2022-09-02T07:17:35;18;17;
61592;PMS5003;47485;51.378;-1.342;2022-09-02T07:20:03;12;12;
61592;PMS5003;47485;51.378;-1.342;2022-09-02T07:22:31;21;17;
61592;PMS5003;47485;51.378;-1.342;2022-09-02T07:24:58;13;12;
61592;PMS5003;47485;51.378;-1.342;2022-09-02T07:27:24;17;16;
61592;PMS5003;47485;51.378;-1.342;2022-09-02T07:29:51;17;16;
61592;PMS5003;47485;51.378;-1.342;2022-09-02T07:32:18;23;18;
61592;PMS5003;47485;51.378;-1.342;2022-09-02T07:34:44;15;15;
61592;PMS5003;47485;51.378;-1.342;2022-09-02T07:37:11;12;12;
61592;PMS5003;47485;51.378;-1.342;2022-09-02T07:39:38;20;17;
61592;PMS5003;47485;51.378;-1.342;2022-09-02T07:42:05;14;13;
61592;PMS5003;47485;51.378;-1.342;2022-09-02T07:44:31;18;15;
61592;PMS5003;47485;51.378;-1.342;2022-09-02T07:46:58;16;16;
61592;PMS5003;47485;51.378;-1.342;2022-09-02T07:49:24;17;16;
61592;PMS5003;47485;51.378;-1.342;2022-09-02T07:51:51;17;15;
61592;PMS5003;47485;51.378;-1.342;2022-09-02T07:54:18;14;13;
61592;PMS5003;47485;51.378;-1.342;2022-09-02T07:56:47;18;17;
61592;PMS5003;47485;51.378;-1.342;2022-09-02T07:59:14;14;14;
61592;PMS5003;47485;51.378;-1.342;2022-09-02T08:01:41;12;12;
61592;PMS5003;47485;51.378;-1.342;2022-09-02T08:04:08;13;13;
61592;PMS5003;47485;51.378;-1.342;2022-09-02T08:06:36;16;13;
61592;PMS5003;47485;51.378;-1.342;2022-09-02T08:09:03;15;14;
61592;PMS5003;47485;51.378;-1.342;2022-09-02T08:11:32;14;12;
61592;PMS5003;47485;51.378;-1.342;2022-09-02T08:14:00;18;16;
61592;PMS5003;47485;51.378;-1.342;2022-09-02T08:16:26;16;14;
61592;PMS5003;47485;51.378;-1.342;2022-09-02T08:18:54;17;14;
61592;PMS5003;47485;51.378;-1.342;2022-09-02T08:21:20;13;13;
61592;PMS5003;47485;51.378;-1.342;2022-09-02T08:23:46;12;11;
61592;PMS5003;47485;51.378;-1.342;2022-09-02T08:26:13;13;13;
61592;PMS5003;47485;51.378;-1.342;2022-09-02T08:28:40;12;11;
61592;PMS5003;47485;51.378;-1.342;2022-09-02T08:31:07;13;12;
61592;PMS5003;47485;51.378;-1.342;2022-09-02T08:33:35;16;13;
61592;PMS5003;47485;51.378;-1.342;2022-09-02T08:36:03;13;13;
61592;PMS5003;47485;51.378;-1.342;2022-09-02T08:38:31;10;10;
61592;PMS5003;47485;51.378;-1.342;2022-09-02T08:40:58;11;11;
61592;PMS5003;47485;51.378;-1.342;2022-09-02T08:43:26;11;11;
61592;PMS5003;47485;51.378;-1.342;2022-09-02T08:45:59;13;12;
61592;PMS5003;47485;51.378;-1.342;2022-09-02T08:48:31;12;11;
61592;PMS5003;47485;51.378;-1.342;2022-09-02T08:51:04;13;12;
61592;PMS5003;47485;51.378;-1.342;2022-09-02T08:53:35;12;11;
61592;PMS5003;47485;51.378;-1.342;2022-09-02T08:56:09;14;12;
61592;PMS5003;47485;51.378;-1.342;2022-09-02T08:58:38;13;11;
61592;PMS5003;47485;51.378;-1.342;2022-09-02T09:01:09;11;11;
61592;PMS5003;47485;51.378;-1.342;2022-09-02T09:03:50;13;12;
61592;PMS5003;47485;51.378;-1.342;2022-09-02T09:06:32;14;12;
61592;PMS5003;47485;51.378;-1.342;2022-09-02T09:09:10;16;16;
61592;PMS5003;47485;51.378;-1.342;2022-09-02T09:11:48;16;14;
61592;PMS5003;47485;51.378;-1.342;2022-09-02T09:14:25;21;16;
61592;PMS5003;47485;51.378;-1.342;2022-09-02T09:17:03;22;17;
61592;PMS5003;47485;51.378;-1.342;2022-09-02T09:19:48;21;18;
61592;PMS5003;47485;51.378;-1.342;2022-09-02T09:22:17;22;19;
61592;PMS5003;47485;51.378;-1.342;2022-09-02T09:24:48;15;14;
61592;PMS5003;47485;51.378;-1.342;2022-09-02T09:27:17;17;15;
61592;PMS5003;47485;51.378;-1.342;2022-09-02T09:29:46;14;13;
61592;PMS5003;47485;51.378;-1.342;2022-09-02T09:32:16;14;14;
61592;PMS5003;47485;51.378;-1.342;2022-09-02T09:34:57;11;11;
61592;PMS5003;47485;51.378;-1.342;2022-09-02T09:37:27;23;22;
61592;PMS5003;47485;51.378;-1.342;2022-09-02T09:39:57;23;20;
61592;PMS5003;47485;51.378;-1.342;2022-09-02T09:42:33;13;13;
61592;PMS5003;47485;51.378;-1.342;2022-09-02T09:45:14;39;38;
61592;PMS5003;47485;51.378;-1.342;2022-09-02T09:47:44;41;41;
61592;PMS5003;47485;51.378;-1.342;2022-09-02T09:50:12;42;42;
61592;PMS5003;47485;51.378;-1.342;2022-09-02T09:52:43;25;23;
61592;PMS5003;47485;51.378;-1.342;2022-09-02T09:55:12;55;52;
61592;PMS5003;47485;51.378;-1.342;2022-09-02T09:57:42;29;27;
61592;PMS5003;47485;51.378;-1.342;2022-09-02T10:00:12;20;19;
61592;PMS5003;47485;51.378;-1.342;2022-09-02T10:02:45;66;63;
61592;PMS5003;47485;51.378;-1.342;2022-09-02T10:05:16;44;43;
61592;PMS5003;47485;51.378;-1.342;2022-09-02T10:07:55;31;28;
61592;PMS5003;47485;51.378;-1.342;2022-09-02T10:10:24;16;14;
61592;PMS5003;47485;51.378;-1.342;2022-09-02T10:12:54;12;12;
61592;PMS5003;47485;51.378;-1.342;2022-09-02T10:15:30;34;32;
61592;PMS5003;47485;51.378;-1.342;2022-09-02T10:18:07;23;22;
61592;PMS5003;47485;51.378;-1.342;2022-09-02T10:20:44;17;16;
61592;PMS5003;47485;51.378;-1.342;2022-09-02T10:23:20;10;10;
61592;PMS5003;47485;51.378;-1.342;2022-09-02T10:25:59;11;10;
61592;PMS5003;47485;51.378;-1.342;2022-09-02T10:28:39;13;12;
61592;PMS5003;47485;51.378;-1.342;2022-09-02T10:31:19;13;13;
61592;PMS5003;47485;51.378;-1.342;2022-09-02T10:33:56;11;9;
61592;PMS5003;47485;51.378;-1.342;2022-09-02T10:36:38;17;16;
61592;PMS5003;47485;51.378;-1.342;2022-09-02T10:39:19;12;12;
61592;PMS5003;47485;51.378;-1.342;2022-09-02T10:41:57;12;11;
61592;PMS5003;47485;51.378;-1.342;2022-09-02T10:44:35;21;19;
61592;PMS5003;47485;51.378;-1.342;2022-09-02T10:47:13;23;20;
61592;PMS5003;47485;51.378;-1.342;2022-09-02T10:49:49;19;19;
61592;PMS5003;47485;51.378;-1.342;2022-09-02T10:52:31;25;24;
61592;PMS5003;47485;51.378;-1.342;2022-09-02T10:55:12;18;15;
61592;PMS5003;47485;51.378;-1.342;2022-09-02T10:57:44;16;14;
61592;PMS5003;47485;51.378;-1.342;2022-09-02T11:00:16;16;15;
61592;PMS5003;47485;51.378;-1.342;2022-09-02T11:02:46;16;16;
61592;PMS5003;47485;51.378;-1.342;2022-09-02T11:05:18;27;24;
61592;PMS5003;47485;51.378;-1.342;2022-09-02T11:07:51;19;19;
61592;PMS5003;47485;51.378;-1.342;2022-09-02T11:10:22;14;14;
61592;PMS5003;47485;51.378;-1.342;2022-09-02T11:12:55;16;12;
61592;PMS5003;47485;51.378;-1.342;2022-09-02T11:15:33;14;14;
61592;PMS5003;47485;51.378;-1.342;2022-09-02T11:18:08;16;15;
61592;PMS5003;47485;51.378;-1.342;2022-09-02T11:20:43;14;13;
61592;PMS5003;47485;51.378;-1.342;2022-09-02T11:23:18;16;16;
61592;PMS5003;47485;51.378;-1.342;2022-09-02T11:25:52;16;16;
61592;PMS5003;47485;51.378;-1.342;2022-09-02T11:28:29;14;14;
61592;PMS5003;47485;51.378;-1.342;2022-09-02T11:31:03;16;13;
61592;PMS5003;47485;51.378;-1.342;2022-09-02T11:33:42;16;15;
61592;PMS5003;47485;51.378;-1.342;2022-09-02T11:36:16;16;13;
61592;PMS5003;47485;51.378;-1.342;2022-09-02T11:38:44;16;16;
61592;PMS5003;47485;51.378;-1.342;2022-09-02T11:41:23;14;14;
61592;PMS5003;47485;51.378;-1.342;2022-09-02T11:43:54;16;16;
61592;PMS5003;47485;51.378;-1.342;2022-09-02T11:46:28;20;20;
61592;PMS5003;47485;51.378;-1.342;2022-09-02T11:49:12;16;15;
61592;PMS5003;47485;51.378;-1.342;2022-09-02T11:51:57;24;21;
61592;PMS5003;47485;51.378;-1.342;2022-09-02T11:54:31;19;16;
61592;PMS5003;47485;51.378;-1.342;2022-09-02T11:57:02;16;15;
61592;PMS5003;47485;51.378;-1.342;2022-09-02T12:00:05;17;15;
61592;PMS5003;47485;51.378;-1.342;2022-09-02T12:02:37;14;14;
61592;PMS5003;47485;51.378;-1.342;2022-09-02T12:05:43;15;15;
61592;PMS5003;47485;51.378;-1.342;2022-09-02T12:08:13;15;13;
61592;PMS5003;47485;51.378;-1.342;2022-09-02T12:11:39;15;14;
61592;PMS5003;47485;51.378;-1.342;2022-09-02T12:15:12;19;15;
61592;PMS5003;47485;51.378;-1.342;2022-09-02T12:17:43;18;17;
61592;PMS5003;47485;51.378;-1.342;2022-09-02T12:21:08;15;14;
61592;PMS5003;47485;51.378;-1.342;2022-09-02T12:25:50;18;17;
61592;PMS5003;47485;51.378;-1.342;2022-09-02T12:28:26;20;16;
61592;PMS5003;47485;51.378;-1.342;2022-09-02T12:31:12;14;13;
61592;PMS5003;47485;51.378;-1.342;2022-09-02T12:33:41;17;16;
61592;PMS5003;47485;51.378;-1.342;2022-09-02T12:36:42;18;14;
61592;PMS5003;47485;51.378;-1.342;2022-09-02T12:39:43;14;14;
61592;PMS5003;47485;51.378;-1.342;2022-09-02T12:42:18;11;11;
61592;PMS5003;47485;51.378;-1.342;2022-09-02T12:44:51;15;14;
61592;PMS5003;47485;51.378;-1.342;2022-09-02T12:47:32;13;13;
61592;PMS5003;47485;51.378;-1.342;2022-09-02T12:50:10;14;10;
61592;PMS5003;47485;51.378;-1.342;2022-09-02T12:52:44;16;13;
61592;PMS5003;47485;51.378;-1.342;2022-09-02T12:55:15;16;15;
61592;PMS5003;47485;51.378;-1.342;2022-09-02T12:57:47;17;17;
61592;PMS5003;47485;51.378;-1.342;2022-09-02T13:00:15;17;16;
61592;PMS5003;47485;51.378;-1.342;2022-09-02T13:02:52;19;13;
61592;PMS5003;47485;51.378;-1.342;2022-09-02T13:05:29;15;14;
61592;PMS5003;47485;51.378;-1.342;2022-09-02T13:08:10;19;15;
61592;PMS5003;47485;51.378;-1.342;2022-09-02T13:10:55;20;18;
61592;PMS5003;47485;51.378;-1.342;2022-09-02T13:14:31;15;13;
61592;PMS5003;47485;51.378;-1.342;2022-09-02T13:15:43;15;13;
61592;PMS5003;47485;51.378;-1.342;2022-09-02T13:18:31;12;11;
61592;PMS5003;47485;51.378;-1.342;2022-09-02T13:21:53;13;12;
61592;PMS5003;47485;51.378;-1.342;2022-09-02T13:24:47;14;11;
61592;PMS5003;47485;51.378;-1.342;2022-09-02T13:27:33;10;10;
61592;PMS5003;47485;51.378;-1.342;2022-09-02T13:30:19;12;10;
61592;PMS5003;47485;51.378;-1.342;2022-09-02T13:32:55;13;10;
61592;PMS5003;47485;51.378;-1.342;2022-09-02T13:35:32;12;12;
61592;PMS5003;47485;51.378;-1.342;2022-09-02T13:38:04;12;11;
61592;PMS5003;47485;51.378;-1.342;2022-09-02T13:40:35;13;11;
61592;PMS5003;47485;51.378;-1.342;2022-09-02T13:43:15;15;14;
61592;PMS5003;47485;51.378;-1.342;2022-09-02T13:45:43;12;11;
61592;PMS5003;47485;51.378;-1.342;2022-09-02T13:48:13;12;12;
61592;PMS5003;47485;51.378;-1.342;2022-09-02T13:50:42;12;12;
61592;PMS5003;47485;51.378;-1.342;2022-09-02T13:53:12;12;12;
61592;PMS5003;47485;51.378;-1.342;2022-09-02T13:55:47;16;15;
61592;PMS5003;47485;51.378;-1.342;2022-09-02T13:58:21;11;10;
61592;PMS5003;47485;51.378;-1.342;2022-09-02T14:00:57;10;10;
61592;PMS5003;47485;51.378;-1.342;2022-09-02T14:03:43;12;12;
61592;PMS5003;47485;51.378;-1.342;2022-09-02T14:06:11;11;11;
61592;PMS5003;47485;51.378;-1.342;2022-09-02T14:08:37;14;13;
61592;PMS5003;47485;51.378;-1.342;2022-09-02T14:11:05;13;13;
61592;PMS5003;47485;51.378;-1.342;2022-09-02T14:13:32;14;12;
61592;PMS5003;47485;51.378;-1.342;2022-09-02T14:16:22;13;13;
61592;PMS5003;47485;51.378;-1.342;2022-09-02T14:19:02;15;14;
61592;PMS5003;47485;51.378;-1.342;2022-09-02T14:21:29;14;13;
61592;PMS5003;47485;51.378;-1.342;2022-09-02T14:23:57;11;11;
61592;PMS5003;47485;51.378;-1.342;2022-09-02T14:26:25;15;14;
61592;PMS5003;47485;51.378;-1.342;2022-09-02T14:28:57;12;11;
61592;PMS5003;47485;51.378;-1.342;2022-09-02T14:31:25;16;15;
61592;PMS5003;47485;51.378;-1.342;2022-09-02T14:33:53;17;14;
61592;PMS5003;47485;51.378;-1.342;2022-09-02T14:36:37;13;13;
61592;PMS5003;47485;51.378;-1.342;2022-09-02T14:39:09;11;11;
61592;PMS5003;47485;51.378;-1.342;2022-09-02T14:41:41;18;17;
61592;PMS5003;47485;51.378;-1.342;2022-09-02T14:44:11;16;16;
61592;PMS5003;47485;51.378;-1.342;2022-09-02T14:46:43;11;11;
61592;PMS5003;47485;51.378;-1.342;2022-09-02T14:49:16;13;12;
61592;PMS5003;47485;51.378;-1.342;2022-09-02T14:51:46;14;14;
61592;PMS5003;47485;51.378;-1.342;2022-09-02T14:54:32;13;12;
61592;PMS5003;47485;51.378;-1.342;2022-09-02T14:57:00;12;12;
61592;PMS5003;47485;51.378;-1.342;2022-09-02T14:59:28;14;13;
61592;PMS5003;47485;51.378;-1.342;2022-09-02T15:01:56;15;13;
61592;PMS5003;47485;51.378;-1.342;2022-09-02T15:04:24;15;15;
61592;PMS5003;47485;51.378;-1.342;2022-09-02T15:06:50;15;11;
61592;PMS5003;47485;51.378;-1.342;2022-09-02T15:09:18;13;10;
61592;PMS5003;47485;51.378;-1.342;2022-09-02T15:11:45;12;11;
61592;PMS5003;47485;51.378;-1.342;2022-09-02T15:14:16;14;12;
61592;PMS5003;47485;51.378;-1.342;2022-09-02T15:16:43;11;11;
61592;PMS5003;47485;51.378;-1.342;2022-09-02T15:19:09;10;10;
61592;PMS5003;47485;51.378;-1.342;2022-09-02T15:21:36;13;13;
61592;PMS5003;47485;51.378;-1.342;2022-09-02T15:24:03;13;12;
61592;PMS5003;47485;51.378;-1.342;2022-09-02T15:26:30;14;13;
61592;PMS5003;47485;51.378;-1.342;2022-09-02T15:28:56;13;13;
61592;PMS5003;47485;51.378;-1.342;2022-09-02T15:31:23;14;13;
61592;PMS5003;47485;51.378;-1.342;2022-09-02T15:33:50;12;12;
61592;PMS5003;47485;51.378;-1.342;2022-09-02T15:36:17;15;14;
61592;PMS5003;47485;51.378;-1.342;2022-09-02T15:38:45;10;10;
61592;PMS5003;47485;51.378;-1.342;2022-09-02T15:41:13;13;11;
61592;PMS5003;47485;51.378;-1.342;2022-09-02T15:43:41;12;12;
61592;PMS5003;47485;51.378;-1.342;2022-09-02T15:46:15;8;8;
61592;PMS5003;47485;51.378;-1.342;2022-09-02T15:48:43;15;13;
61592;PMS5003;47485;51.378;-1.342;2022-09-02T15:51:10;13;12;
61592;PMS5003;47485;51.378;-1.342;2022-09-02T15:53:37;14;12;
61592;PMS5003;47485;51.378;-1.342;2022-09-02T15:56:05;15;10;
61592;PMS5003;47485;51.378;-1.342;2022-09-02T15:58:40;12;12;
61592;PMS5003;47485;51.378;-1.342;2022-09-02T16:01:07;13;12;
61592;PMS5003;47485;51.378;-1.342;2022-09-02T16:03:34;11;11;
61592;PMS5003;47485;51.378;-1.342;2022-09-02T16:06:03;13;12;
61592;PMS5003;47485;51.378;-1.342;2022-09-02T16:08:32;15;12;
61592;PMS5003;47485;51.378;-1.342;2022-09-02T16:11:01;13;11;
61592;PMS5003;47485;51.378;-1.342;2022-09-02T16:13:31;11;9;
61592;PMS5003;47485;51.378;-1.342;2022-09-02T16:15:59;9;9;
61592;PMS5003;47485;51.378;-1.342;2022-09-02T16:18:27;10;10;
61592;PMS5003;47485;51.378;-1.342;2022-09-02T16:20:53;10;10;
61592;PMS5003;47485;51.378;-1.342;2022-09-02T16:23:21;16;16;
61592;PMS5003;47485;51.378;-1.342;2022-09-02T16:25:47;12;9;
61592;PMS5003;47485;51.378;-1.342;2022-09-02T16:28:33;9;8;